sensor_id;sensor_type;location;lat;lon;timestamp;temperature;humidity
21563;DHT22;10942;47.894;11.424;2023-11-21T06:44:56;6.90;99.90
21563;DHT22;10942;47.894;11.424;2023-11-21T06:47:25;6.80;99.90
21563;DHT22;10942;47.894;11.424;2023-11-21T06:49:52;6.80;99.90
21563;DHT22;10942;47.894;11.424;2023-11-21T06:52:18;6.80;99.90
21563;DHT22;10942;47.894;11.424;2023-11-21T06:54:45;6.80;99.90
21563;DHT22;10942;47.894;11.424;2023-11-21T06:57:11;6.80;99.90
21563;DHT22;10942;47.894;11.424;2023-11-21T06:59:37;6.90;99.90
21563;DHT22;10942;47.894;11.424;2023-11-21T07:02:03;6.80;99.90
21563;DHT22;10942;47.894;11.424;2023-11-21T07:04:37;6.90;99.90
21563;DHT22;10942;47.894;11.424;2023-11-21T07:07:03;6.90;99.90
21563;DHT22;10942;47.894;11.424;2023-11-21T07:09:30;6.90;99.90
21563;DHT22;10942;47.894;11.424;2023-11-21T07:11:56;6.90;99.90
21563;DHT22;10942;47.894;11.424;2023-11-21T07:14:22;6.90;99.90
21563;DHT22;10942;47.894;11.424;2023-11-21T07:16:48;6.90;99.90
21563;DHT22;10942;47.894;11.424;2023-11-21T07:19:14;6.90;99.90
21563;DHT22;10942;47.894;11.424;2023-11-21T07:21:40;6.90;99.90
21563;DHT22;10942;47.894;11.424;2023-11-21T07:24:07;7.00;99.90
21563;DHT22;10942;47.894;11.424;2023-11-21T07:26:34;6.90;99.90
21563;DHT22;10942;47.894;11.424;2023-11-21T07:29:01;6.90;99.90
21563;DHT22;10942;47.894;11.424;2023-11-21T07:31:26;7.00;99.90
21563;DHT22;10942;47.894;11.424;2023-11-21T07:33:52;7.00;99.90
21563;DHT22;10942;47.894;11.424;2023-11-21T07:36:19;7.00;99.90
21563;DHT22;10942;47.894;11.424;2023-11-21T07:38:46;7.00;99.90
21563;DHT22;10942;47.894;11.424;2023-11-21T07:41:12;7.00;99.90
21563;DHT22;10942;47.894;11.424;2023-11-21T07:43:44;7.10;99.90
21563;DHT22;10942;47.894;11.424;2023-11-21T07:46:11;7.10;99.90
21563;DHT22;10942;47.894;11.424;2023-11-21T07:48:38;7.10;99.90
21563;DHT22;10942;47.894;11.424;2023-11-21T07:51:04;7.20;99.90
21563;DHT22;10942;47.894;11.424;2023-11-21T07:53:30;7.20;99.90
21563;DHT22;10942;47.894;11.424;2023-11-21T07:55:56;7.20;99.90
21563;DHT22;10942;47.894;11.424;2023-11-21T07:58:22;7.20;99.90
21563;DHT22;10942;47.894;11.424;2023-11-21T08:00:50;7.10;99.90
21563;DHT22;10942;47.894;11.424;2023-11-21T08:03:16;7.10;99.90
21563;DHT22;10942;47.894;11.424;2023-11-21T08:05:42;7.10;99.90
21563;DHT22;10942;47.894;11.424;2023-11-21T08:08:08;7.10;99.90
21563;DHT22;10942;47.894;11.424;2023-11-21T08:10:34;7.10;99.90
21563;DHT22;10942;47.894;11.424;2023-11-21T08:13:01;7.10;99.90
21563;DHT22;10942;47.894;11.424;2023-11-21T08:15:27;7.20;99.90
21563;DHT22;10942;47.894;11.424;2023-11-21T08:17:53;7.20;99.90
21563;DHT22;10942;47.894;11.424;2023-11-21T08:20:19;7.10;99.90
21563;DHT22;10942;47.894;11.424;2023-11-21T08:22:45;7.20;99.90
21563;DHT22;10942;47.894;11.424;2023-11-21T08:25:13;7.30;99.90
21563;DHT22;10942;47.894;11.424;2023-11-21T08:27:38;7.30;99.90
21563;DHT22;10942;47.894;11.424;2023-11-21T08:30:04;7.30;99.90
21563;DHT22;10942;47.894;11.424;2023-11-21T08:32:30;7.40;99.90
21563;DHT22;10942;47.894;11.424;2023-11-21T08:34:58;7.50;99.90
21563;DHT22;10942;47.894;11.424;2023-11-21T08:37:24;7.50;99.90
21563;DHT22;10942;47.894;11.424;2023-11-21T08:39:52;7.50;99.90
21563;DHT22;10942;47.894;11.424;2023-11-21T08:42:19;7.60;99.90
21563;DHT22;10942;47.894;11.424;2023-11-21T08:44:45;7.70;99.90
21563;DHT22;10942;47.894;11.424;2023-11-21T08:47:11;7.80;99.90
21563;DHT22;10942;47.894;11.424;2023-11-21T08:49:37;7.80;99.90
21563;DHT22;10942;47.894;11.424;2023-11-21T08:52:04;7.90;99.90
21563;DHT22;10942;47.894;11.424;2023-11-21T08:54:31;7.90;99.90
21563;DHT22;10942;47.894;11.424;2023-11-21T08:56:56;7.90;99.90
21563;DHT22;10942;47.894;11.424;2023-11-21T08:59:24;7.80;99.90
21563;DHT22;10942;47.894;11.424;2023-11-21T09:01:50;7.80;99.90
21563;DHT22;10942;47.894;11.424;2023-11-21T09:04:16;7.70;99.90
21563;DHT22;10942;47.894;11.424;2023-11-21T09:06:42;7.80;99.90
21563;DHT22;10942;47.894;11.424;2023-11-21T09:09:07;7.70;99.90
21563;DHT22;10942;47.894;11.424;2023-11-21T09:11:36;7.80;99.90
21563;DHT22;10942;47.894;11.424;2023-11-21T09:14:02;7.80;99.90
21563;DHT22;10942;47.894;11.424;2023-11-21T09:16:31;7.80;99.90
21563;DHT22;10942;47.894;11.424;2023-11-21T09:18:58;7.90;99.90
21563;DHT22;10942;47.894;11.424;2023-11-21T09:21:23;7.90;99.90
21563;DHT22;10942;47.894;11.424;2023-11-21T09:23:51;7.90;99.90
21563;DHT22;10942;47.894;11.424;2023-11-21T09:26:17;7.90;99.90
21563;DHT22;10942;47.894;11.424;2023-11-21T09:28:45;7.80;99.90
21563;DHT22;10942;47.894;11.424;2023-11-21T09:31:14;7.80;99.90
21563;DHT22;10942;47.894;11.424;2023-11-21T09:33:44;7.80;99.90
21563;DHT22;10942;47.894;11.424;2023-11-21T09:36:13;7.80;99.90
21563;DHT22;10942;47.894;11.424;2023-11-21T09:38:40;7.80;99.90
21563;DHT22;10942;47.894;11.424;2023-11-21T09:41:32;7.80;99.90
21563;DHT22;10942;47.894;11.424;2023-11-21T09:44:02;7.90;99.90
21563;DHT22;10942;47.894;11.424;2023-11-21T09:46:33;7.90;99.90
21563;DHT22;10942;47.894;11.424;2023-11-21T09:49:00;7.90;99.90
21563;DHT22;10942;47.894;11.424;2023-11-21T09:51:31;7.90;99.90
21563;DHT22;10942;47.894;11.424;2023-11-21T09:53:59;7.90;99.90
21563;DHT22;10942;47.894;11.424;2023-11-21T09:56:27;8.00;99.90
21563;DHT22;10942;47.894;11.424;2023-11-21T09:58:55;8.00;99.90
21563;DHT22;10942;47.894;11.424;2023-11-21T10:01:24;8.10;99.90
21563;DHT22;10942;47.894;11.424;2023-11-21T10:03:50;8.20;99.90
21563;DHT22;10942;47.894;11.424;2023-11-21T10:06:16;8.20;99.90
21563;DHT22;10942;47.894;11.424;2023-11-21T10:08:43;8.20;99.90
21563;DHT22;10942;47.894;11.424;2023-11-21T10:11:11;8.30;99.90
21563;DHT22;10942;47.894;11.424;2023-11-21T10:13:38;8.30;99.90
21563;DHT22;10942;47.894;11.424;2023-11-21T10:16:07;8.40;99.90
21563;DHT22;10942;47.894;11.424;2023-11-21T10:18:34;8.40;99.90
21563;DHT22;10942;47.894;11.424;2023-11-21T10:21:01;8.40;99.90
21563;DHT22;10942;47.894;11.424;2023-11-21T10:23:27;8.50;99.90
21563;DHT22;10942;47.894;11.424;2023-11-21T10:25:53;8.50;99.90
21563;DHT22;10942;47.894;11.424;2023-11-21T10:28:20;8.40;99.90
21563;DHT22;10942;47.894;11.424;2023-11-21T10:30:46;8.40;99.90
21563;DHT22;10942;47.894;11.424;2023-11-21T10:33:12;8.40;99.90
21563;DHT22;10942;47.894;11.424;2023-11-21T10:38:07;8.30;99.90
21563;DHT22;10942;47.894;11.424;2023-11-21T10:40:38;8.20;99.90
21563;DHT22;10942;47.894;11.424;2023-11-21T10:43:08;8.20;99.90
21563;DHT22;10942;47.894;11.424;2023-11-21T10:45:38;8.20;99.90
21563;DHT22;10942;47.894;11.424;2023-11-21T10:48:08;8.20;99.90
21563;DHT22;10942;47.894;11.424;2023-11-21T10:50:37;8.20;99.90
21563;DHT22;10942;47.894;11.424;2023-11-21T10:53:04;8.30;99.90
21563;DHT22;10942;47.894;11.424;2023-11-21T10:55:30;8.20;99.90
21563;DHT22;10942;47.894;11.424;2023-11-21T10:57:59;8.30;99.90
21563;DHT22;10942;47.894;11.424;2023-11-21T11:00:26;8.30;99.90
21563;DHT22;10942;47.894;11.424;2023-11-21T11:02:53;8.40;99.90
21563;DHT22;10942;47.894;11.424;2023-11-21T11:05:27;8.50;99.90
21563;DHT22;10942;47.894;11.424;2023-11-21T11:08:08;8.60;99.90
21563;DHT22;10942;47.894;11.424;2023-11-21T11:10:37;8.60;99.90
21563;DHT22;10942;47.894;11.424;2023-11-21T11:13:03;8.60;99.90
21563;DHT22;10942;47.894;11.424;2023-11-21T11:15:29;8.70;99.90
21563;DHT22;10942;47.894;11.424;2023-11-21T11:17:55;8.90;99.90
21563;DHT22;10942;47.894;11.424;2023-11-21T11:20:30;8.90;99.90
21563;DHT22;10942;47.894;11.424;2023-11-21T11:28:15;9.20;99.90
21563;DHT22;10942;47.894;11.424;2023-11-21T11:33:48;9.30;99.90
21563;DHT22;10942;47.894;11.424;2023-11-21T11:36:37;9.30;99.90
21563;DHT22;10942;47.894;11.424;2023-11-21T11:39:28;9.30;99.90
21563;DHT22;10942;47.894;11.424;2023-11-21T11:41:56;9.30;99.90
21563;DHT22;10942;47.894;11.424;2023-11-21T11:44:47;9.30;99.90
21563;DHT22;10942;47.894;11.424;2023-11-21T11:47:29;9.30;99.90
21563;DHT22;10942;47.894;11.424;2023-11-21T11:50:08;9.30;99.90
21563;DHT22;10942;47.894;11.424;2023-11-21T11:52:52;9.20;99.90
21563;DHT22;10942;47.894;11.424;2023-11-21T11:55:24;9.10;99.90
21563;DHT22;10942;47.894;11.424;2023-11-21T11:57:54;9.10;99.90
21563;DHT22;10942;47.894;11.424;2023-11-21T12:03:00;9.10;99.90
21563;DHT22;10942;47.894;11.424;2023-11-21T12:05:29;8.90;99.90
21563;DHT22;10942;47.894;11.424;2023-11-21T12:08:01;8.90;99.90
21563;DHT22;10942;47.894;11.424;2023-11-21T12:10:31;9.00;99.90
21563;DHT22;10942;47.894;11.424;2023-11-21T12:13:06;8.70;99.90
21563;DHT22;10942;47.894;11.424;2023-11-21T12:15:36;8.60;99.90
21563;DHT22;10942;47.894;11.424;2023-11-21T12:18:02;8.70;99.90
21563;DHT22;10942;47.894;11.424;2023-11-21T12:20:29;8.60;99.90
21563;DHT22;10942;47.894;11.424;2023-11-21T12:23:00;8.70;99.90
21563;DHT22;10942;47.894;11.424;2023-11-21T12:25:29;8.70;99.90
21563;DHT22;10942;47.894;11.424;2023-11-21T12:27:58;8.60;99.90
21563;DHT22;10942;47.894;11.424;2023-11-21T12:30:32;8.70;99.90
21563;DHT22;10942;47.894;11.424;2023-11-21T12:32:59;8.70;99.90
21563;DHT22;10942;47.894;11.424;2023-11-21T12:35:27;8.80;99.90
21563;DHT22;10942;47.894;11.424;2023-11-21T12:37:54;8.90;99.90
21563;DHT22;10942;47.894;11.424;2023-11-21T12:40:20;8.90;99.90
21563;DHT22;10942;47.894;11.424;2023-11-21T12:42:52;8.80;99.90
21563;DHT22;10942;47.894;11.424;2023-11-21T12:45:25;8.80;99.90
21563;DHT22;10942;47.894;11.424;2023-11-21T12:48:02;8.90;99.90
21563;DHT22;10942;47.894;11.424;2023-11-21T12:50:33;8.90;99.90
21563;DHT22;10942;47.894;11.424;2023-11-21T12:53:01;9.00;99.90
21563;DHT22;10942;47.894;11.424;2023-11-21T12:55:33;9.00;99.90
21563;DHT22;10942;47.894;11.424;2023-11-21T12:58:04;9.00;99.90
21563;DHT22;10942;47.894;11.424;2023-11-21T13:00:44;9.00;99.90
21563;DHT22;10942;47.894;11.424;2023-11-21T13:03:12;9.10;99.90
21563;DHT22;10942;47.894;11.424;2023-11-21T13:05:41;9.10;99.90
21563;DHT22;10942;47.894;11.424;2023-11-21T13:08:12;9.10;99.90
21563;DHT22;10942;47.894;11.424;2023-11-21T13:10:42;9.10;99.90
21563;DHT22;10942;47.894;11.424;2023-11-21T13:13:10;9.20;99.90
21563;DHT22;10942;47.894;11.424;2023-11-21T13:15:51;9.10;99.90
21563;DHT22;10942;47.894;11.424;2023-11-21T13:18:18;9.10;99.90
21563;DHT22;10942;47.894;11.424;2023-11-21T13:20:44;9.00;99.90
21563;DHT22;10942;47.894;11.424;2023-11-21T13:23:10;8.90;99.90
21563;DHT22;10942;47.894;11.424;2023-11-21T13:25:41;9.00;99.90
21563;DHT22;10942;47.894;11.424;2023-11-21T13:28:08;9.00;99.90
21563;DHT22;10942;47.894;11.424;2023-11-21T13:30:35;9.00;99.90
21563;DHT22;10942;47.894;11.424;2023-11-21T13:33:04;9.00;99.90
21563;DHT22;10942;47.894;11.424;2023-11-21T13:35:34;9.00;99.90
21563;DHT22;10942;47.894;11.424;2023-11-21T13:38:21;8.90;99.90
21563;DHT22;10942;47.894;11.424;2023-11-21T13:40:52;8.90;99.90
21563;DHT22;10942;47.894;11.424;2023-11-21T13:43:23;8.90;99.90
21563;DHT22;10942;47.894;11.424;2023-11-21T13:45:52;8.80;99.90
21563;DHT22;10942;47.894;11.424;2023-11-21T13:48:26;8.70;99.90
21563;DHT22;10942;47.894;11.424;2023-11-21T13:51:06;8.70;99.90
21563;DHT22;10942;47.894;11.424;2023-11-21T13:53:48;8.60;99.90
21563;DHT22;10942;47.894;11.424;2023-11-21T13:56:19;8.60;99.90
21563;DHT22;10942;47.894;11.424;2023-11-21T13:58:53;8.60;99.90
21563;DHT22;10942;47.894;11.424;2023-11-21T14:01:22;8.50;99.90
21563;DHT22;10942;47.894;11.424;2023-11-21T14:04:13;8.50;99.90
21563;DHT22;10942;47.894;11.424;2023-11-21T14:06:43;8.40;99.90
21563;DHT22;10942;47.894;11.424;2023-11-21T14:09:22;8.40;99.90
21563;DHT22;10942;47.894;11.424;2023-11-21T14:11:50;8.20;99.90
21563;DHT22;10942;47.894;11.424;2023-11-21T14:14:17;8.20;99.90
21563;DHT22;10942;47.894;11.424;2023-11-21T14:16:44;8.10;99.90
21563;DHT22;10942;47.894;11.424;2023-11-21T14:19:10;8.10;99.90
21563;DHT22;10942;47.894;11.424;2023-11-21T14:21:44;8.00;99.90
21563;DHT22;10942;47.894;11.424;2023-11-21T14:24:14;7.90;99.90
21563;DHT22;10942;47.894;11.424;2023-11-21T14:26:43;7.90;99.90
21563;DHT22;10942;47.894;11.424;2023-11-21T14:29:11;7.90;99.90
21563;DHT22;10942;47.894;11.424;2023-11-21T14:31:40;7.90;99.90
21563;DHT22;10942;47.894;11.424;2023-11-21T14:34:07;7.90;99.90
21563;DHT22;10942;47.894;11.424;2023-11-21T14:36:36;7.80;99.90
21563;DHT22;10942;47.894;11.424;2023-11-21T14:39:05;7.80;99.90
21563;DHT22;10942;47.894;11.424;2023-11-21T14:41:41;7.80;99.90
21563;DHT22;10942;47.894;11.424;2023-11-21T14:44:10;7.80;99.90
21563;DHT22;10942;47.894;11.424;2023-11-21T14:46:38;7.80;99.90
21563;DHT22;10942;47.894;11.424;2023-11-21T14:49:05;7.70;99.90
21563;DHT22;10942;47.894;11.424;2023-11-21T14:52:00;7.70;99.90
21563;DHT22;10942;47.894;11.424;2023-11-21T14:54:32;7.80;99.90
21563;DHT22;10942;47.894;11.424;2023-11-21T14:57:13;7.80;99.90
21563;DHT22;10942;47.894;11.424;2023-11-21T14:59:48;7.90;99.90
21563;DHT22;10942;47.894;11.424;2023-11-21T15:02:20;7.80;99.90
21563;DHT22;10942;47.894;11.424;2023-11-21T15:05:09;7.80;99.90
21563;DHT22;10942;47.894;11.424;2023-11-21T15:07:40;7.70;99.90
21563;DHT22;10942;47.894;11.424;2023-11-21T15:10:07;7.70;99.90
21563;DHT22;10942;47.894;11.424;2023-11-21T15:12:37;7.70;99.90
21563;DHT22;10942;47.894;11.424;2023-11-21T15:15:05;7.70;99.90
21563;DHT22;10942;47.894;11.424;2023-11-21T15:17:35;7.70;99.90
21563;DHT22;10942;47.894;11.424;2023-11-21T15:20:03;7.70;99.90
21563;DHT22;10942;47.894;11.424;2023-11-21T15:22:29;7.70;99.90
21563;DHT22;10942;47.894;11.424;2023-11-21T15:24:55;7.70;99.90
21563;DHT22;10942;47.894;11.424;2023-11-21T15:27:21;7.60;99.90
21563;DHT22;10942;47.894;11.424;2023-11-21T15:29:47;7.60;99.90
21563;DHT22;10942;47.894;11.424;2023-11-21T15:32:15;7.60;99.90
21563;DHT22;10942;47.894;11.424;2023-11-21T15:34:41;7.60;99.90
21563;DHT22;10942;47.894;11.424;2023-11-21T15:37:07;7.50;99.90
21563;DHT22;10942;47.894;11.424;2023-11-21T15:39:37;7.50;99.90
21563;DHT22;10942;47.894;11.424;2023-11-21T15:42:04;7.50;99.90
21563;DHT22;10942;47.894;11.424;2023-11-21T15:44:32;7.50;99.90
21563;DHT22;10942;47.894;11.424;2023-11-21T15:46:59;7.40;99.90
21563;DHT22;10942;47.894;11.424;2023-11-21T15:49:25;7.30;99.90
21563;DHT22;10942;47.894;11.424;2023-11-21T15:51:53;7.30;99.90
21563;DHT22;10942;47.894;11.424;2023-11-21T15:56:47;7.10;99.90
21563;DHT22;10942;47.894;11.424;2023-11-21T15:59:14;7.10;99.90
21563;DHT22;10942;47.894;11.424;2023-11-21T16:01:40;7.00;99.90
21563;DHT22;10942;47.894;11.424;2023-11-21T16:04:10;7.00;99.90
21563;DHT22;10942;47.894;11.424;2023-11-21T16:06:37;6.90;99.90
21563;DHT22;10942;47.894;11.424;2023-11-21T16:09:07;7.00;99.90
21563;DHT22;10942;47.894;11.424;2023-11-21T16:11:43;6.90;99.90
21563;DHT22;10942;47.894;11.424;2023-11-21T16:14:09;6.90;99.90
21563;DHT22;10942;47.894;11.424;2023-11-21T16:16:35;6.90;99.90
21563;DHT22;10942;47.894;11.424;2023-11-21T16:19:00;7.00;99.90
21563;DHT22;10942;47.894;11.424;2023-11-21T16:21:27;6.90;99.90
21563;DHT22;10942;47.894;11.424;2023-11-21T16:23:53;7.00;99.90
21563;DHT22;10942;47.894;11.424;2023-11-21T16:26:19;6.90;99.90
21563;DHT22;10942;47.894;11.424;2023-11-21T16:28:45;6.90;99.90
21563;DHT22;10942;47.894;11.424;2023-11-21T16:31:11;7.00;99.90
21563;DHT22;10942;47.894;11.424;2023-11-21T16:33:37;6.80;99.90
21563;DHT22;10942;47.894;11.424;2023-11-21T16:36:02;6.80;99.90
21563;DHT22;10942;47.894;11.424;2023-11-21T16:38:28;6.90;99.90
21563;DHT22;10942;47.894;11.424;2023-11-21T16:40:54;6.90;99.90
21563;DHT22;10942;47.894;11.424;2023-11-21T16:43:20;6.90;99.90
21563;DHT22;10942;47.894;11.424;2023-11-21T16:45:47;7.00;99.90
21563;DHT22;10942;47.894;11.424;2023-11-21T16:48:18;7.00;99.90
21563;DHT22;10942;47.894;11.424;2023-11-21T16:50:44;7.00;99.90
21563;DHT22;10942;47.894;11.424;2023-11-21T16:53:10;7.00;99.90
21563;DHT22;10942;47.894;11.424;2023-11-21T16:55:36;7.00;99.90
21563;DHT22;10942;47.894;11.424;2023-11-21T16:58:01;7.00;99.90
21563;DHT22;10942;47.894;11.424;2023-11-21T17:00:27;6.90;99.90
21563;DHT22;10942;47.894;11.424;2023-11-21T17:02:53;6.90;99.90
21563;DHT22;10942;47.894;11.424;2023-11-21T17:05:18;6.90;99.90
21563;DHT22;10942;47.894;11.424;2023-11-21T17:07:45;7.00;99.90
21563;DHT22;10942;47.894;11.424;2023-11-21T17:10:13;6.90;99.90
21563;DHT22;10942;47.894;11.424;2023-11-21T17:12:38;6.90;99.90
21563;DHT22;10942;47.894;11.424;2023-11-21T17:15:05;6.80;99.90
21563;DHT22;10942;47.894;11.424;2023-11-21T17:17:33;6.80;99.90
21563;DHT22;10942;47.894;11.424;2023-11-21T17:19:59;6.90;99.90
21563;DHT22;10942;47.894;11.424;2023-11-21T17:22:26;6.90;99.90
21563;DHT22;10942;47.894;11.424;2023-11-21T17:24:52;6.80;99.90
21563;DHT22;10942;47.894;11.424;2023-11-21T17:27:18;6.80;99.90
21563;DHT22;10942;47.894;11.424;2023-11-21T17:29:43;6.70;99.90
21563;DHT22;10942;47.894;11.424;2023-11-21T17:32:09;6.70;99.90
21563;DHT22;10942;47.894;11.424;2023-11-21T17:34:35;6.70;99.90
21563;DHT22;10942;47.894;11.424;2023-11-21T17:37:00;6.70;99.90
21563;DHT22;10942;47.894;11.424;2023-11-21T17:39:29;6.70;99.90
21563;DHT22;10942;47.894;11.424;2023-11-21T17:41:55;6.80;99.90
21563;DHT22;10942;47.894;11.424;2023-11-21T17:44:20;6.70;99.90
21563;DHT22;10942;47.894;11.424;2023-11-21T17:46:46;6.70;99.90
21563;DHT22;10942;47.894;11.424;2023-11-21T17:49:12;6.70;99.90
21563;DHT22;10942;47.894;11.424;2023-11-21T17:51:39;6.70;99.90
21563;DHT22;10942;47.894;11.424;2023-11-21T17:54:05;6.70;99.90
21563;DHT22;10942;47.894;11.424;2023-11-21T17:56:31;6.70;99.90
21563;DHT22;10942;47.894;11.424;2023-11-21T17:58:57;6.70;99.90
21563;DHT22;10942;47.894;11.424;2023-11-21T18:01:23;6.80;99.90
21563;DHT22;10942;47.894;11.424;2023-11-21T18:03:49;6.70;99.90
21563;DHT22;10942;47.894;11.424;2023-11-21T18:06:15;6.70;99.90
21563;DHT22;10942;47.894;11.424;2023-11-21T18:08:41;6.80;99.90
21563;DHT22;10942;47.894;11.424;2023-11-21T18:11:09;6.80;99.90
21563;DHT22;10942;47.894;11.424;2023-11-21T18:13:35;6.80;99.90
21563;DHT22;10942;47.894;11.424;2023-11-21T18:16:01;6.90;99.90
21563;DHT22;10942;47.894;11.424;2023-11-21T18:18:26;6.90;99.90
21563;DHT22;10942;47.894;11.424;2023-11-21T18:20:52;6.80;99.90
21563;DHT22;10942;47.894;11.424;2023-11-21T18:23:18;6.90;99.90
21563;DHT22;10942;47.894;11.424;2023-11-21T18:25:44;6.80;99.90
21563;DHT22;10942;47.894;11.424;2023-11-21T18:28:10;6.80;99.90
21563;DHT22;10942;47.894;11.424;2023-11-21T18:30:36;6.90;99.90
21563;DHT22;10942;47.894;11.424;2023-11-21T18:33:02;6.90;99.90
21563;DHT22;10942;47.894;11.424;2023-11-21T18:35:29;6.90;99.90
21563;DHT22;10942;47.894;11.424;2023-11-21T18:37:56;6.90;99.90
21563;DHT22;10942;47.894;11.424;2023-11-21T18:40:21;6.90;99.90
21563;DHT22;10942;47.894;11.424;2023-11-21T18:42:47;6.90;99.90
21563;DHT22;10942;47.894;11.424;2023-11-21T18:45:13;6.90;99.90
21563;DHT22;10942;47.894;11.424;2023-11-21T18:47:39;6.90;99.90
21563;DHT22;10942;47.894;11.424;2023-11-21T18:50:06;6.90;99.90
21563;DHT22;10942;47.894;11.424;2023-11-21T18:52:32;6.80;99.90
21563;DHT22;10942;47.894;11.424;2023-11-21T18:54:58;6.90;99.90
21563;DHT22;10942;47.894;11.424;2023-11-21T18:57:27;6.90;99.90
21563;DHT22;10942;47.894;11.424;2023-11-21T18:59:52;6.90;99.90
21563;DHT22;10942;47.894;11.424;2023-11-21T19:02:18;6.80;99.90
21563;DHT22;10942;47.894;11.424;2023-11-21T19:04:44;6.80;99.90
21563;DHT22;10942;47.894;11.424;2023-11-21T19:07:10;6.80;99.90
21563;DHT22;10942;47.894;11.424;2023-11-21T19:09:36;6.80;99.90
21563;DHT22;10942;47.894;11.424;2023-11-21T19:12:05;6.80;99.90
21563;DHT22;10942;47.894;11.424;2023-11-21T19:14:31;6.80;99.90
21563;DHT22;10942;47.894;11.424;2023-11-21T19:16:57;6.80;99.90
21563;DHT22;10942;47.894;11.424;2023-11-21T19:19:23;6.80;99.90
21563;DHT22;10942;47.894;11.424;2023-11-21T19:21:49;6.80;99.90
21563;DHT22;10942;47.894;11.424;2023-11-21T19:24:15;6.80;99.90
21563;DHT22;10942;47.894;11.424;2023-11-21T19:26:44;6.80;99.90
21563;DHT22;10942;47.894;11.424;2023-11-21T19:29:10;6.80;99.90
21563;DHT22;10942;47.894;11.424;2023-11-21T19:31:35;6.80;99.90
21563;DHT22;10942;47.894;11.424;2023-11-21T19:34:01;6.90;99.90
21563;DHT22;10942;47.894;11.424;2023-11-21T19:36:27;6.90;99.90
21563;DHT22;10942;47.894;11.424;2023-11-21T19:38:53;6.90;99.90
21563;DHT22;10942;47.894;11.424;2023-11-21T19:41:20;6.90;99.90
21563;DHT22;10942;47.894;11.424;2023-11-21T19:43:48;6.80;99.90
21563;DHT22;10942;47.894;11.424;2023-11-21T19:46:14;6.90;99.90
21563;DHT22;10942;47.894;11.424;2023-11-21T19:48:41;6.80;99.90
21563;DHT22;10942;47.894;11.424;2023-11-21T19:51:11;6.80;99.90
21563;DHT22;10942;47.894;11.424;2023-11-21T19:53:39;6.80;99.90
21563;DHT22;10942;47.894;11.424;2023-11-21T19:56:06;6.80;99.90
21563;DHT22;10942;47.894;11.424;2023-11-21T19:58:38;6.80;99.90
21563;DHT22;10942;47.894;11.424;2023-11-21T20:01:05;6.80;99.90
21563;DHT22;10942;47.894;11.424;2023-11-21T20:03:30;6.70;99.90
21563;DHT22;10942;47.894;11.424;2023-11-21T20:05:58;6.80;99.90
21563;DHT22;10942;47.894;11.424;2023-11-21T20:08:23;6.80;99.90
21563;DHT22;10942;47.894;11.424;2023-11-21T20:10:49;6.70;99.90
21563;DHT22;10942;47.894;11.424;2023-11-21T20:13:15;6.70;99.90
21563;DHT22;10942;47.894;11.424;2023-11-21T20:15:42;6.70;99.90
21563;DHT22;10942;47.894;11.424;2023-11-21T20:18:09;6.80;99.90
21563;DHT22;10942;47.894;11.424;2023-11-21T20:20:37;6.80;99.90
21563;DHT22;10942;47.894;11.424;2023-11-21T20:23:02;6.70;99.90
21563;DHT22;10942;47.894;11.424;2023-11-21T20:25:28;6.80;99.90
21563;DHT22;10942;47.894;11.424;2023-11-21T20:27:55;6.70;99.90
21563;DHT22;10942;47.894;11.424;2023-11-21T20:30:21;6.80;99.90
21563;DHT22;10942;47.894;11.424;2023-11-21T20:32:49;6.80;99.90
21563;DHT22;10942;47.894;11.424;2023-11-21T20:35:17;6.70;99.90
21563;DHT22;10942;47.894;11.424;2023-11-21T20:37:45;6.60;99.90
21563;DHT22;10942;47.894;11.424;2023-11-21T20:40:14;6.60;99.90
21563;DHT22;10942;47.894;11.424;2023-11-21T20:42:42;6.60;99.90
21563;DHT22;10942;47.894;11.424;2023-11-21T20:45:12;6.70;99.90
21563;DHT22;10942;47.894;11.424;2023-11-21T20:47:42;6.70;99.90
21563;DHT22;10942;47.894;11.424;2023-11-21T20:50:09;6.70;99.90
21563;DHT22;10942;47.894;11.424;2023-11-21T20:52:34;6.70;99.90
21563;DHT22;10942;47.894;11.424;2023-11-21T20:55:00;6.70;99.90
21563;DHT22;10942;47.894;11.424;2023-11-21T20:57:26;6.70;99.90
21563;DHT22;10942;47.894;11.424;2023-11-21T20:59:52;6.70;99.90
21563;DHT22;10942;47.894;11.424;2023-11-21T21:02:17;6.80;99.90
21563;DHT22;10942;47.894;11.424;2023-11-21T21:04:44;6.80;99.90
21563;DHT22;10942;47.894;11.424;2023-11-21T21:07:10;6.80;99.90
21563;DHT22;10942;47.894;11.424;2023-11-21T21:09:36;6.80;99.90
21563;DHT22;10942;47.894;11.424;2023-11-21T21:12:02;6.70;99.90
21563;DHT22;10942;47.894;11.424;2023-11-21T21:14:28;6.70;99.90
21563;DHT22;10942;47.894;11.424;2023-11-21T21:16:55;6.70;99.90
21563;DHT22;10942;47.894;11.424;2023-11-21T21:19:22;6.70;99.90
21563;DHT22;10942;47.894;11.424;2023-11-21T21:21:51;6.70;99.90
21563;DHT22;10942;47.894;11.424;2023-11-21T21:24:17;6.70;99.90
21563;DHT22;10942;47.894;11.424;2023-11-21T21:26:42;6.70;99.90
21563;DHT22;10942;47.894;11.424;2023-11-21T21:29:08;6.70;99.90
21563;DHT22;10942;47.894;11.424;2023-11-21T21:31:34;6.70;99.90
21563;DHT22;10942;47.894;11.424;2023-11-21T21:34:04;6.70;99.90
21563;DHT22;10942;47.894;11.424;2023-11-21T21:36:30;6.80;99.90
21563;DHT22;10942;47.894;11.424;2023-11-21T21:38:57;6.70;99.90
21563;DHT22;10942;47.894;11.424;2023-11-21T21:41:23;6.80;99.90
21563;DHT22;10942;47.894;11.424;2023-11-21T21:43:50;6.80;99.90
21563;DHT22;10942;47.894;11.424;2023-11-21T21:46:20;6.70;99.90
21563;DHT22;10942;47.894;11.424;2023-11-21T21:48:46;6.80;99.90
21563;DHT22;10942;47.894;11.424;2023-11-21T21:51:16;6.80;99.90
21563;DHT22;10942;47.894;11.424;2023-11-21T21:53:42;6.80;99.90
21563;DHT22;10942;47.894;11.424;2023-11-21T21:56:08;6.80;99.90
21563;DHT22;10942;47.894;11.424;2023-11-21T21:58:34;6.80;99.90
21563;DHT22;10942;47.894;11.424;2023-11-21T22:01:00;6.80;99.90
21563;DHT22;10942;47.894;11.424;2023-11-21T22:03:30;6.70;99.90
21563;DHT22;10942;47.894;11.424;2023-11-21T22:05:57;6.80;99.90
21563;DHT22;10942;47.894;11.424;2023-11-21T22:08:26;6.70;99.90
21563;DHT22;10942;47.894;11.424;2023-11-21T22:10:52;6.70;99.90
21563;DHT22;10942;47.894;11.424;2023-11-21T22:13:18;6.70;99.90
21563;DHT22;10942;47.894;11.424;2023-11-21T22:15:44;6.70;99.90
21563;DHT22;10942;47.894;11.424;2023-11-21T22:18:10;6.70;99.90
21563;DHT22;10942;47.894;11.424;2023-11-21T22:20:36;6.70;99.90
21563;DHT22;10942;47.894;11.424;2023-11-21T22:23:02;6.70;99.90
21563;DHT22;10942;47.894;11.424;2023-11-21T22:25:28;6.70;99.90
21563;DHT22;10942;47.894;11.424;2023-11-21T22:27:53;6.70;99.90
21563;DHT22;10942;47.894;11.424;2023-11-21T22:30:20;6.70;99.90
21563;DHT22;10942;47.894;11.424;2023-11-21T22:32:46;6.70;99.90
21563;DHT22;10942;47.894;11.424;2023-11-21T22:35:12;6.80;99.90